Fort Irwin, California
Current Conditions -  °F | °C
As of 7:55 AM on Friday 24 Oct 2014 (Local Time) from KBYS Reporting Station
Clear Clear  
Wind Chill: 68°   Ceiling: Unl
Heat Index: 68°   Visibility: 10mi
Dew Point: 35°   Wind: 3mph
Humidity: 30%   Direction: 330°NNW
Pressure: 30.08"   Gusts: NA
Location:  35.12°N, 116.9°W
Report Text: KBYS 241455Z AUTO 33003KT 10SM CLR 20/02 A3008 RMK AO2 SLP151 T02010019 53012 $
Loading
Personal Weather Stations






























Interactive Weather Map
Tropical Storm Tracking
New forecast layout! Learn more

10-Day Weather Forecast

Advertisements
Track Severe Weather on mobile